Archer, Nebraska
Current Conditions -  °F | °C
As of 1:53 AM on Friday 31 Oct 2014 (Local Time) from KGRI Reporting Station
Overcast Overcast  
Wind Chill: 30°   Ceiling: 1900
Heat Index: 37°   Visibility: 10mi
Dew Point: 31°   Wind: 10mph
Humidity: 79%   Direction: 10°N
Pressure: 30.46"   Gusts: NA
Location:  41.17°N, 98.14°W
Report Text: KGRI 310653Z AUTO 01009KT 10SM OVC019 03/M01 A3046 RMK AO2 SLP321 T00281006
Loading
Personal Weather Stations






























Interactive Weather Map
Tropical Storm Tracking
New forecast layout! Learn more

10-Day Weather Forecast

Advertisements
Track Severe Weather on mobile